FW7499 Weather Reports


Display with metric or nautical units.
time (UTC)temp
F
wind
direction
speed
MPH
gust
MPH
rain 1hr
in
rain 24hr
in
rain mn
in
humidity
%
barometer
mb
20240521170505 70 82 2.0 11.0 0.00 2.53 1.77 85 996.4
20240521170006 70 195 2.0 10.0 0.00 2.53 1.77 86 996.5
20240521165503 69 73 4.0 13.0 0.00 2.53 1.77 86 996.3
20240521165002 69 89 2.0 14.0 0.00 2.53 1.77 87 996.3
20240521164502 69 84 6.0 14.0 0.00 2.53 1.77 87 996.3
20240521164003 68 74 2.0 10.0 0.00 2.53 1.77 87 996.7
20240521163504 68 57 2.0 12.0 0.00 2.53 1.77 87 996.9
20240521163003 68 134 4.0 12.0 0.00 2.53 1.77 88 996.9
20240521162504 68 82 1.0 15.0 0.00 2.53 1.77 87 997.1
20240521162006 68 109 7.0 15.0 0.00 2.53 1.77 86 997.3
20240521161502 68 284 2.0 13.0 0.00 2.53 1.77 85 997.5
20240521161006 68 145 2.0 13.0 0.00 2.53 1.77 86 997.5
20240521160503 68 167 1.0 9.0 0.00 2.53 1.77 87 997.6
20240521160005 67 67 1.0 9.0 0.00 2.53 1.77 86 997.7
20240521155507 67 84 0.0 9.0 0.00 2.53 1.77 86 997.9
20240521155004 67 68 4.0 10.0 0.00 2.53 1.77 84 997.9
20240521154503 67 73 1.0 11.0 0.00 2.53 1.77 85 997.9
20240521154007 67 80 0.0 11.0 0.00 2.53 1.77 88 998.0
20240521153504 66 96 2.0 8.0 0.00 2.53 1.77 88 998.2
20240521153003 66 58 1.0 8.0 0.00 2.53 1.77 87 998.6
20240521152505 66 60 2.0 8.0 0.00 2.53 1.77 87 998.9
20240521152003 66 66 1.0 6.0 0.00 2.53 1.77 88 998.9
20240521151516 66 69 1.0 7.0 0.00 2.53 1.77 88 999.0
20240521151003 65 64 3.0 9.0 0.00 2.53 1.77 88 998.9
20240521150505 65 82 4.0 9.0 0.00 2.53 1.77 89 998.9
20240521150007 64 90 1.0 8.0 0.00 2.53 1.77 90 998.8
20240521145504 64 98 2.0 7.0 0.00 2.53 1.77 91 999.1
20240521145006 63 71 1.0 7.0 0.00 2.53 1.77 92 999.4
20240521144506 63 59 3.0 7.0 0.00 2.53 1.77 93 999.3
20240521144009 62 92 1.0 7.0 0.00 2.53 1.77 93 999.2
20240521143504 62 83 1.0 6.0 0.00 2.53 1.77 94 999.4
20240521143003 62 31 0.0 4.0 0.00 2.53 1.77 94 999.8
20240521142505 61 84 0.0 4.0 0.00 2.53 1.77 94 1000.0
20240521142003 61 125 0.0 6.0 0.00 2.53 1.77 94 1000.2
20240521141504 61 227 0.0 8.0 0.00 2.53 1.77 94 1000.3
20240521141006 61 112 0.0 8.0 0.00 2.53 1.77 95 1000.3
20240521140508 60 59 1.0 8.0 0.00 2.53 1.77 94 1000.3
20240521140004 60 88 0.0 8.0 0.00 2.53 1.77 95 1000.3
20240521135505 60 76 2.0 8.0 0.00 2.53 1.77 94 1000.3
20240521135004 60 69 2.0 9.0 0.00 2.53 1.77 95 1000.3
20240521134504 60 76 1.0 11.0 0.00 2.53 1.77 95 1000.3
20240521134004 60 66 5.0 12.0 0.00 2.53 1.77 95 1000.5
20240521133507 60 80 2.0 12.0 0.00 2.53 1.77 95 1000.6
20240521133008 59 97 2.0 7.0 0.00 2.53 1.77 95 1001.0
20240521132504 59 82 1.0 7.0 0.00 2.53 1.77 95 1001.1
20240521132006 59 125 2.0 9.0 0.00 2.53 1.77 95 1001.1
20240521131503 59 27 2.0 9.0 0.00 2.53 1.77 94 1001.2
20240521131003 59 76 2.0 7.0 0.00 2.53 1.77 95 1001.0
20240521130505 59 88 2.0 7.0 0.00 2.53 1.77 95 1000.7
20240521130015 59 80 1.0 12.0 0.00 2.53 1.77 95 1000.7
20240521125508 59 87 4.0 12.0 0.00 2.53 1.77 95 1000.5
20240521125008 60 100 3.0 9.0 0.00 2.53 1.77 95 1000.6
20240521124505 60 86 1.0 9.0 0.01 2.53 1.77 95 1000.7
20240521124005 60 90 2.0 9.0 0.06 2.53 1.77 95 1000.9
20240521123503 59 123 2.0 6.0 0.10 2.53 1.77 95 1000.9
20240521123005 59 71 1.0 6.0 0.16 2.53 1.77 95 1000.9
20240521122507 59 86 1.0 4.0 0.37 2.53 1.77 95 1001.1
20240521122003 59 204 0.0 7.0 0.67 2.53 1.77 95 1001.3
20240521121505 59 64 0.0 7.0 1.02 2.53 1.77 95 1001.1
20240521121004 59 67 0.0 6.0 1.05 2.53 1.77 95 1001.4
20240521120504 59 101 0.0 6.0 1.13 2.53 1.77 95 1001.6
20240521120004 59 82 1.0 7.0 1.20 2.53 1.77 95 1002.4
20240521115504 59 94 1.0 7.0 1.26 2.53 1.77 94 1002.5
20240521115004 59 5 1.0 6.0 1.50 2.53 1.77 94 1001.6
20240521114513 59 67 2.0 7.0 1.71 2.52 1.76 94 1002.2
20240521114004 59 13 0.0 8.0 1.69 2.47 1.71 94 1002.6
20240521113504 59 319 2.0 12.0 1.65 2.43 1.67 94 1002.3
20240521113012 59 323 5.0 22.0 1.59 2.36 1.61 94 1003.2
20240521112503 59 298 7.0 22.0 1.38 2.16 1.40 94 1005.0
20240521112003 62 300 8.0 13.0 1.08 1.86 1.10 94 1004.3
20240521111510 62 302 3.0 7.0 0.73 1.51 0.75 95 1001.7
20240521111003 62 297 2.0 9.0 0.69 1.47 0.71 95 1000.6
20240521110506 62 5 2.0 9.0 0.62 1.40 0.64 94 999.5
20240521110003 61 123 2.0 10.0 0.55 1.33 0.57 94 998.9
20240521105503 61 92 3.0 13.0 0.49 1.27 0.51 94 999.1
20240521105004 62 344 4.0 13.0 0.25 1.03 0.27 94 1002.2
20240521104504 63 344 5.0 11.0 0.03 0.81 0.05 94 1000.0
20240521104004 63 13 4.0 11.0 0.00 0.78 0.02 94 1000.2
20240521103504 64 302 2.0 10.0 0.00 0.78 0.02 94 1001.2
20240521103002 63 224 3.0 10.0 0.00 0.78 0.02 94 1000.6
20240521102504 64 35 3.0 10.0 0.00 0.78 0.02 94 998.8
20240521102005 64 15 2.0 15.0 0.00 0.78 0.02 95 999.5
20240521101504 65 62 3.0 15.0 0.00 0.78 0.02 94 999.5
20240521101006 65 109 1.0 12.0 0.00 0.78 0.02 95 1000.1
20240521100507 65 74 2.0 10.0 0.00 0.78 0.02 95 1000.8
20240521100003 65 66 3.0 10.0 0.00 0.78 0.02 95 1001.4
20240521095504 65 67 3.0 6.0 0.00 0.78 0.02 95 1001.1
20240521095005 65 203 3.0 6.0 0.00 0.78 0.02 95 1001.5
20240521094503 66 300 0.0 2.0 0.00 0.78 0.02 95 1001.4
20240521094005 65 25 0.0 2.0 0.00 0.78 0.02 95 1001.8
20240521093507 66 54 0.0 4.0 0.00 0.78 0.02 95 1001.7
20240521093003 66 355 0.0 6.0 0.00 0.78 0.02 94 1001.8
20240521092504 66 88 1.0 8.0 0.00 0.78 0.02 95 1002.0
20240521092004 66 347 2.0 8.0 0.00 0.78 0.02 95 1001.9
20240521091509 66 94 3.0 7.0 0.00 0.78 0.02 95 1002.2
20240521091005 67 339 2.0 7.0 0.00 0.78 0.02 95 1002.2
20240521090504 67 346 1.0 3.0 0.00 0.78 0.02 95 1002.3
20240521090009 67 75 0.0 2.0 0.00 0.78 0.02 95 1002.1
20240521085504 67 75 0.0 2.0 0.00 0.78 0.02 95 1001.7
20240521085003 67 75 0.0 2.0 0.00 0.78 0.02 95 1001.6
20240521084505 67 75 0.0 1.0 0.00 0.78 0.02 95 1001.8
20240521084003 67 75 0.0 3.0 0.00 0.78 0.02 95 1002.0
20240521083503 67 75 0.0 3.0 0.00 0.78 0.02 95 1002.2
20240521083004 67 75 0.0 2.0 0.00 0.78 0.02 95 1002.5
20240521082505 67 75 0.0 2.0 0.00 0.78 0.02 95 1002.3
20240521082003 66 75 0.0 2.0 0.00 0.78 0.02 95 1002.1
20240521081504 66 75 0.0 2.0 0.00 0.78 0.02 95 1002.3
20240521081003 66 75 0.0 2.0 0.00 0.78 0.02 95 1002.7
20240521080503 66 75 0.0 4.0 0.00 0.78 0.02 95 1003.0
20240521080004 66 75 1.0 4.0 0.00 0.78 0.02 94 1002.8
20240521075506 66 98 0.0 4.0 0.00 0.78 0.02 94 1002.7
20240521075002 66 98 0.0 4.0 0.00 0.78 0.02 94 1002.7
20240521074503 66 70 0.0 4.0 0.00 0.78 0.02 94 1002.6
20240521074006 66 82 0.0 3.0 0.00 0.78 0.02 94 1002.8
20240521073504 66 82 0.0 2.0 0.00 0.78 0.02 94 1002.9
20240521073004 66 82 0.0 2.0 0.00 0.78 0.02 94 1003.1
20240521072503 66 82 0.0 3.0 0.00 0.78 0.02 94 1003.1
20240521072005 65 82 0.0 3.0 0.00 0.78 0.02 94 1002.8
20240521071508 65 221 0.0 1.0 0.00 0.78 0.02 94 1003.0
20240521071004 65 221 0.0 2.0 0.00 0.78 0.02 94 1003.4
20240521070505 65 221 0.0 2.0 0.00 0.78 0.02 94 1003.1
20240521070008 65 221 0.0 0.0 0.00 0.78 0.02 94 1003.3
20240521065504 65 221 0.0 0.0 0.00 0.78 0.02 94 1003.1
20240521065007 65 221 0.0 4.0 0.00 0.78 0.02 94 1003.2
20240521064507 65 221 1.0 4.0 0.00 0.78 0.02 94 1003.3
20240521064003 65 76 0.0 4.0 0.00 0.78 0.02 94 1003.1
20240521063504 65 114 0.0 2.0 0.00 0.78 0.02 94 1003.5
20240521063005 65 115 0.0 1.0 0.00 0.78 0.02 94 1003.9
20240521062505 65 114 0.0 0.0 0.00 0.78 0.02 94 1004.0
20240521062005 65 115 0.0 1.0 0.00 0.78 0.02 94 1004.4
20240521061506 65 114 0.0 2.0 0.00 0.78 0.02 94 1004.6
20240521061006 65 114 1.0 3.0 0.00 0.78 0.02 94 1004.6
20240521060503 65 115 0.0 3.0 0.00 0.78 0.02 94 1004.7
20240521060009 65 115 0.0 3.0 0.02 0.78 0.02 94 1004.8
20240521055508 65 78 0.0 4.0 0.04 0.78 0.02 93 1005.1
20240521055004 65 77 1.0 4.0 0.10 0.78 0.02 93 1005.4
20240521054506 65 89 2.0 3.0 0.32 0.78 0.02 93 1005.3
20240521054005 65 69 0.0 1.0 0.47 0.78 0.02 93 1005.3
20240521053504 65 69 0.0 3.0 0.58 0.78 0.02 93 1005.5
20240521053004 65 69 0.0 3.0 0.63 0.78 0.02 93 1005.5
20240521052504 65 69 1.0 3.0 0.65 0.78 0.02 93 1005.4
20240521052004 65 69 0.0 4.0 0.66 0.78 0.02 93 1005.5
20240521051513 65 98 1.0 4.0 0.73 0.78 0.02 92 1005.3
20240521051005 65 114 1.0 2.0 0.78 0.78 0.02 92 1005.6
20240521050506 65 114 0.0 2.0 0.78 0.78 0.02 92 1006.0
20240521050005 65 114 0.0 3.0 0.76 0.76 0.00 92 1006.3
20240521045504 65 115 0.0 4.0 0.74 0.74 0.74 91 1006.4
20240521045005 64 114 1.0 12.0 0.68 0.68 0.68 91 1006.1
20240521044505 64 33 2.0 12.0 0.46 0.46 0.46 90 1006.7
20240521044004 65 355 3.0 13.0 0.31 0.31 0.31 90 1006.8
20240521043505 65 355 4.0 13.0 0.19 0.19 0.19 88 1006.3
20240521043014 66 279 5.0 13.0 0.15 0.15 0.15 88 1006.6
20240521042505 67 340 6.0 13.0 0.13 0.13 0.13 87 1005.9
20240521042002 68 342 3.0 6.0 0.12 0.12 0.12 87 1005.7
20240521041502 69 355 0.0 10.0 0.05 0.05 0.05 85 1006.3
20240521041004 70 344 1.0 10.0 0.00 0.00 0.00 82 1006.4
20240521040505 72 246 1.0 9.0 0.00 0.00 0.00 77 1006.6
20240521040004 75 241 4.0 9.0 0.00 0.00 0.00 75 1006.2
20240521035502 76 22 1.0 10.0 0.00 0.00 0.00 75 1005.9
20240521035005 76 28 1.0 10.0 0.00 0.00 0.00 75 1005.7
20240521034507 76 34 2.0 9.0 0.00 0.00 0.00 75 1005.8
20240521034002 76 77 1.0 5.0 0.00 0.00 0.00 75 1005.8
20240521033503 75 132 1.0 5.0 0.00 0.00 0.00 75 1005.7
20240521033002 75 32 1.0 5.0 0.00 0.00 0.00 77 1005.8
20240521032505 75 88 0.0 4.0 0.00 0.00 0.00 77 1005.7
20240521032007 75 121 0.0 4.0 0.00 0.00 0.00 78 1006.0
20240521031507 75 83 0.0 5.0 0.00 0.00 0.00 79 1006.1
20240521031004 75 83 1.0 8.0 0.00 0.00 0.00 78 1006.2
20240521030506 75 74 1.0 9.0 0.00 0.00 0.00 78 1005.9
20240521030003 75 34 1.0 9.0 0.00 0.00 0.00 76 1006.0
20240521025502 76 46 1.0 5.0 0.00 0.00 0.00 75 1006.2
20240521025004 76 154 1.0 4.0 0.00 0.00 0.00 74 1006.2
20240521024524 77 33 0.0 7.0 0.00 0.00 0.00 71 1006.3
20240521024002 77 208 1.0 7.0 0.00 0.00 0.00 70 1006.5
20240521023503 77 181 1.0 5.0 0.00 0.00 0.00 70 1006.4
20240521023009 77 93 1.0 8.0 0.00 0.00 0.00 69 1006.2
20240521022503 77 76 0.0 8.0 0.00 0.00 0.00 69 1006.2
20240521022005 78 162 1.0 4.0 0.00 0.00 0.00 69 1006.5
20240521021506 77 130 1.0 4.0 0.00 0.00 0.00 69 1006.2
20240521021003 78 111 1.0 4.0 0.00 0.00 0.00 69 1006.2
20240521020504 78 134 0.0 5.0 0.00 0.00 0.00 68 1006.0
20240521020006 78 157 1.0 5.0 0.00 0.00 0.00 68 1006.2
20240521015505 78 76 1.0 4.0 0.00 0.00 0.00 68 1006.1
20240521015005 78 81 0.0 3.0 0.00 0.00 0.00 68 1006.0
20240521014503 79 184 0.0 3.0 0.00 0.00 0.00 67 1006.1
20240521014003 79 154 0.0 4.0 0.00 0.00 0.00 66 1006.3
20240521013503 79 157 1.0 4.0 0.00 0.00 0.00 67 1006.3
20240521013005 79 66 0.0 5.0 0.00 0.00 0.00 65 1006.2
20240521012505 79 17 0.0 5.0 0.00 0.00 0.00 65 1006.0
20240521012005 79 174 1.0 5.0 0.00 0.00 0.00 65 1006.0
20240521011508 80 187 0.0 5.0 0.00 0.00 0.00 64 1006.1
20240521011009 80 204 1.0 5.0 0.00 0.00 0.00 63 1006.2
20240521010505 80 190 1.0 5.0 0.00 0.00 0.00 63 1005.8
20240521010002 80 322 1.0 4.0 0.00 0.00 0.00 63 1005.8
20240521005502 80 195 0.0 6.0 0.00 0.00 0.00 64 1005.9
20240521005005 80 156 1.0 6.0 0.00 0.00 0.00 63 1006.0
20240521004503 80 159 0.0 8.0 0.00 0.00 0.00 62 1006.1
20240521004002 81 87 0.0 8.0 0.00 0.00 0.00 62 1006.0
20240521003503 81 182 1.0 7.0 0.00 0.01 0.00 62 1006.1
20240521003006 81 196 0.0 8.0 0.00 0.02 0.00 62 1006.1
20240521002502 81 213 2.0 9.0 0.00 0.02 0.00 61 1006.0
20240521002003 81 251 0.0 9.0 0.00 0.02 0.00 62 1006.2
20240521001509 82 246 2.0 6.0 0.00 0.03 0.00 61 1006.3
20240521001007 82 119 1.0 5.0 0.00 0.03 0.00 60 1006.3
20240521000504 82 59 1.0 4.0 0.00 0.04 0.00 61 1006.4
20240521000006 83 88 0.0 3.0 0.00 0.04 0.00 60 1006.4
20240520235504 83 59 1.0 4.0 0.00 0.04 0.00 60 1006.5
20240520235003 83 59 0.0 4.0 0.00 0.04 0.00 59 1006.6
20240520234502 83 80 0.0 4.0 0.00 0.04 0.00 61 1006.5
20240520234003 84 180 0.0 3.0 0.00 0.04 0.00 57 1006.5
20240520233503 83 180 1.0 3.0 0.00 0.04 0.00 58 1006.6
20240520233003 83 101 0.0 2.0 0.00 0.04 0.00 59 1006.6
20240520232504 82 67 0.0 1.0 0.00 0.04 0.00 59 1006.6
20240520232006 83 67 0.0 2.0 0.00 0.04 0.00 58 1006.8
20240520231504 83 67 0.0 4.0 0.00 0.04 0.00 58 1006.8
20240520231004 83 67 1.0 4.0 0.00 0.04 0.00 57 1006.9
20240520230507 84 240 1.0 2.0 0.00 0.04 0.00 56 1007.0
20240520230003 84 244 1.0 2.0 0.00 0.04 0.00 55 1006.9
20240520225506 83 244 0.0 6.0 0.00 0.04 0.00 59 1007.0
20240520225003 83 260 2.0 6.0 0.00 0.04 0.00 56 1007.1
20240520224508 84 313 1.0 4.0 0.00 0.04 0.00 55 1007.2
20240520224004 86 93 0.0 4.0 0.00 0.04 0.00 53 1007.2
20240520223505 85 82 0.0 4.0 0.00 0.04 0.00 57 1007.2
20240520223007 84 243 0.0 3.0 0.00 0.04 0.00 59 1007.2
20240520222503 86 16 0.0 3.0 0.00 0.04 0.00 54 1007.2
20240520222003 85 22 0.0 3.0 0.00 0.04 0.00 54 1007.2
20240520221506 85 22 1.0 3.0 0.00 0.04 0.00 55 1007.2
20240520221003 83 22 0.0 4.0 0.00 0.04 0.00 55 1007.2
20240520220503 83 22 0.0 4.0 0.00 0.04 0.00 55 1007.2
20240520220011 85 80 2.0 4.0 0.00 0.04 0.00 53 1007.2
20240520215507 85 90 0.0 3.0 0.00 0.04 0.00 56 1007.3
20240520215003 85 87 0.0 4.0 0.00 0.04 0.00 55 1007.3
20240520214505 84 272 0.0 4.0 0.00 0.04 0.00 53 1007.4
20240520214005 85 296 1.0 4.0 0.00 0.04 0.00 54 1007.5
20240520213503 85 338 1.0 5.0 0.00 0.04 0.00 54 1007.5
20240520213004 84 106 1.0 7.0 0.00 0.04 0.00 56 1007.5
20240520212504 84 129 1.0 7.0 0.00 0.04 0.00 54 1007.6
20240520212004 84 153 0.0 6.0 0.00 0.06 0.00 56 1007.6
20240520211504 84 277 1.0 6.0 0.00 0.06 0.00 55 1007.7
20240520211003 84 167 2.0 5.0 0.00 0.06 0.00 56 1007.8
20240520210503 84 171 0.0 4.0 0.00 0.06 0.00 55 1007.8
20240520210006 83 314 0.0 5.0 0.00 0.06 0.00 57 1007.9
20240520205504 84 274 1.0 6.0 0.00 0.06 0.00 59 1008.1
20240520205005 84 80 1.0 6.0 0.00 0.06 0.00 56 1008.2
20240520204504 84 121 1.0 4.0 0.00 0.06 0.00 57 1008.3
20240520204007 83 282 2.0 4.0 0.00 0.06 0.00 55 1008.3
20240520203503 83 261 2.0 5.0 0.00 0.06 0.00 55 1008.3
20240520203004 83 259 2.0 5.0 0.00 0.06 0.00 56 1008.4
20240520202504 84 244 0.0 5.0 0.00 0.06 0.00 55 1008.5
20240520202003 84 300 2.0 5.0 0.00 0.06 0.00 56 1008.5
20240520201504 83 290 0.0 4.0 0.00 0.06 0.00 59 1008.5
20240520201005 82 277 1.0 4.0 0.00 0.06 0.00 60 1008.5
20240520200504 82 92 1.0 4.0 0.00 0.06 0.00 56 1008.5
20240520200004 84 309 1.0 4.0 0.00 0.06 0.00 55 1008.5
20240520195505 85 324 2.0 4.0 0.00 0.06 0.00 59 1008.6
20240520195004 85 217 0.0 4.0 0.00 0.06 0.00 57 1008.6
20240520194504 84 276 1.0 5.0 0.00 0.06 0.00 58 1008.6
20240520194003 83 88 0.0 7.0 0.00 0.06 0.00 62 1008.6
20240520193504 83 105 3.0 7.0 0.00 0.06 0.00 58 1008.6
20240520193007 82 96 1.0 6.0 0.00 0.06 0.00 60 1008.7
20240520192504 82 121 0.0 4.0 0.00 0.06 0.00 58 1008.8
20240520192003 82 252 1.0 5.0 0.00 0.06 0.00 57 1008.8
20240520191502 82 256 0.0 5.0 0.00 0.06 0.00 58 1008.8
20240520191002 82 332 2.0 5.0 0.00 0.06 0.00 60 1008.8
20240520190504 82 352 0.0 5.0 0.00 0.06 0.00 58 1008.8
20240520190009 82 352 1.0 6.0 0.00 0.06 0.00 60 1008.8
20240520185504 82 278 2.0 6.0 0.00 0.06 0.00 59 1008.8
20240520185004 80 234 1.0 5.0 0.00 0.06 0.00 61 1008.7
20240520184503 80 233 2.0 6.0 0.00 0.06 0.00 59 1008.7
20240520184008 81 306 1.0 6.0 0.00 0.06 0.00 61 1008.8
20240520183503 81 69 1.0 5.0 0.00 0.06 0.00 65 1008.9
20240520183004 81 330 1.0 5.0 0.00 0.06 0.00 60 1008.9
20240520182507 81 271 2.0 4.0 0.00 0.06 0.00 61 1008.9
20240520182001 80 82 1.0 4.0 0.00 0.06 0.00 61 1008.9
20240520181503 79 352 2.0 5.0 0.00 0.06 0.00 59 1008.9
20240520181004 80 185 2.0 5.0 0.00 0.06 0.00 61 1009.0
20240520180504 80 217 3.0 7.0 0.00 0.06 0.00 61 1009.0
20240520180002 80 231 1.0 7.0 0.00 0.06 0.00 60 1009.1
20240520175503 79 169 1.0 5.0 0.00 0.06 0.00 62 1009.1
20240520175002 79 194 1.0 5.0 0.00 0.06 0.00 61 1009.1
20240520174503 79 155 1.0 4.0 0.00 0.06 0.00 61 1009.1
20240520174006 80 247 1.0 4.0 0.00 0.06 0.00 64 1009.1
20240520173511 79 262 1.0 4.0 0.00 0.06 0.00 64 1009.1
20240520173006 79 321 1.0 4.0 0.00 0.06 0.00 60 1009.2
20240520172504 78 101 1.0 4.0 0.00 0.06 0.00 62 1009.2
20240520172002 78 335 0.0 4.0 0.00 0.06 0.00 64 1009.2
20240520171510 78 360 1.0 7.0 0.00 0.06 0.00 62 1009.3
20240520171002 77 155 2.0 7.0 0.00 0.06 0.00 62 1009.3